createdAt,value
2022-08-12T00:03:14.852Z,13.55
2022-08-12T00:08:45.773Z,13.50
2022-08-12T00:14:10.489Z,13.47
2022-08-12T00:19:35.251Z,13.45
2022-08-12T00:25:00.030Z,13.40
2022-08-12T00:30:25.729Z,13.36
2022-08-12T00:35:50.592Z,13.35
2022-08-12T00:41:17.048Z,13.31
2022-08-12T00:46:37.131Z,13.26
2022-08-12T00:52:02.257Z,13.21
2022-08-12T00:57:11.752Z,13.20
2022-08-12T01:02:25.094Z,13.18
2022-08-12T01:07:52.153Z,13.12
2022-08-12T01:13:18.923Z,13.03
2022-08-12T01:18:30.485Z,12.97
2022-08-12T01:24:29.532Z,12.95
2022-08-12T01:29:38.698Z,12.88
2022-08-12T01:35:05.873Z,12.81
2022-08-12T01:40:35.055Z,12.73
2022-08-12T01:45:57.535Z,12.66
2022-08-12T01:52:15.618Z,12.59
2022-08-12T01:56:51.734Z,12.53
2022-08-12T02:02:00.881Z,12.43
2022-08-12T02:07:47.392Z,12.39
2022-08-12T02:13:04.354Z,12.30
2022-08-12T02:18:24.512Z,12.26
2022-08-12T02:23:32.573Z,12.30
2022-08-12T02:28:41.494Z,12.35
2022-08-12T02:33:49.815Z,12.36
2022-08-12T02:38:59.295Z,12.41
2022-08-12T02:44:11.571Z,12.32
2022-08-12T02:49:24.125Z,12.19
2022-08-12T02:54:30.939Z,12.11
2022-08-12T02:59:36.808Z,12.08
2022-08-12T03:04:49.323Z,12.09
2022-08-12T03:10:04.258Z,12.09
2022-08-12T03:15:14.956Z,12.06
2022-08-12T03:20:28.068Z,12.03
2022-08-12T03:25:38.730Z,11.97
2022-08-12T03:30:56.546Z,11.99
2022-08-12T03:36:05.272Z,12.00
2022-08-12T03:41:35.706Z,11.90
2022-08-12T03:47:04.545Z,11.91
2022-08-12T03:52:29.365Z,11.97
2022-08-12T03:57:54.103Z,12.05
2022-08-12T04:03:02.078Z,12.13
2022-08-12T04:08:11.845Z,12.12
2022-08-12T04:13:25.735Z,12.11
2022-08-12T04:18:33.739Z,12.12
2022-08-12T04:23:46.324Z,12.20
2022-08-12T04:28:56.737Z,12.29
2022-08-12T04:34:04.765Z,12.47
2022-08-12T04:39:13.308Z,12.67
2022-08-12T04:44:21.102Z,12.79
2022-08-12T04:49:28.943Z,12.92
2022-08-12T04:54:36.394Z,12.98
2022-08-12T04:59:47.180Z,13.14
2022-08-12T05:05:00.665Z,13.35
2022-08-12T05:10:10.063Z,13.58
2022-08-12T05:15:27.303Z,13.80
2022-08-12T05:20:35.303Z,14.01
2022-08-12T05:25:43.435Z,14.18
2022-08-12T05:30:50.630Z,14.35
2022-08-12T05:35:57.720Z,14.60
2022-08-12T05:41:06.367Z,14.85
2022-08-12T05:46:15.406Z,15.10
2022-08-12T05:51:30.046Z,15.34
2022-08-12T05:56:47.329Z,15.58
2022-08-12T06:02:12.574Z,15.81
2022-08-12T06:07:59.744Z,16.04
2022-08-12T06:12:49.504Z,16.21
2022-08-12T06:17:56.865Z,16.37
2022-08-12T06:23:04.630Z,16.49
2022-08-12T06:28:19.796Z,16.55
2022-08-12T06:33:55.345Z,16.61
2022-08-12T06:38:54.944Z,16.66
2022-08-12T06:44:06.079Z,16.70
2022-08-12T06:49:15.031Z,16.78
2022-08-12T06:54:31.135Z,16.82
2022-08-12T06:59:41.238Z,16.88
2022-08-12T07:04:48.313Z,16.88
2022-08-12T07:10:06.472Z,16.90
2022-08-12T07:15:14.442Z,16.98
2022-08-12T07:20:50.232Z,17.04
2022-08-12T07:25:48.296Z,17.13
2022-08-12T07:30:57.226Z,17.16
2022-08-12T07:36:06.338Z,17.26
2022-08-12T07:41:17.488Z,17.37
2022-08-12T07:46:27.242Z,17.47
2022-08-12T07:51:35.605Z,17.59
2022-08-12T07:56:44.012Z,17.71
2022-08-12T08:01:54.952Z,17.89
2022-08-12T08:07:03.695Z,18.09
2022-08-12T08:12:37.458Z,18.26
2022-08-12T08:18:00.120Z,18.51
2022-08-12T08:23:09.874Z,18.79
2022-08-12T08:28:18.956Z,19.05
2022-08-12T08:34:08.962Z,19.31
2022-08-12T08:38:56.079Z,19.46
2022-08-12T08:44:05.299Z,19.47
2022-08-12T08:49:12.673Z,19.69
2022-08-12T08:54:20.073Z,19.91
2022-08-12T08:59:27.332Z,19.96
2022-08-12T09:05:11.706Z,20.01
2022-08-12T09:10:03.998Z,20.09
2022-08-12T09:15:16.835Z,20.19
2022-08-12T09:20:29.558Z,20.29
2022-08-12T09:25:36.609Z,20.36
2022-08-12T09:30:48.624Z,20.38
2022-08-12T09:36:03.102Z,20.43
2022-08-12T09:42:34.359Z,20.44
2022-08-12T09:46:43.447Z,20.34
2022-08-12T09:51:55.757Z,20.35
2022-08-12T09:58:44.564Z,20.43
2022-08-12T10:02:43.945Z,20.47
2022-08-12T10:08:00.472Z,20.45
2022-08-12T10:13:36.622Z,20.44
2022-08-12T10:18:52.866Z,20.48
2022-08-12T10:24:00.879Z,20.58
2022-08-12T10:30:03.432Z,20.64
2022-08-12T10:34:57.087Z,20.67
2022-08-12T10:40:09.364Z,20.70
2022-08-12T10:45:19.780Z,20.75
2022-08-12T10:50:58.463Z,20.81
2022-08-12T10:55:58.333Z,20.87
2022-08-12T11:01:49.715Z,20.96
2022-08-12T11:07:10.201Z,21.06
2022-08-12T11:12:56.459Z,21.17
2022-08-12T11:17:53.609Z,21.27
2022-08-12T11:23:03.867Z,21.30
2022-08-12T11:28:34.104Z,21.37
2022-08-12T11:34:06.044Z,21.41
2022-08-12T11:39:12.362Z,21.50
2022-08-12T11:44:36.967Z,21.58
2022-08-12T11:49:51.894Z,21.64
2022-08-12T11:54:59.357Z,21.70
2022-08-12T12:05:39.537Z,21.92
2022-08-12T12:10:49.942Z,22.01
2022-08-12T12:15:57.763Z,22.10
2022-08-12T12:21:09.733Z,22.17
2022-08-12T12:26:34.653Z,22.26
2022-08-12T12:32:10.249Z,22.38
2022-08-12T12:37:16.374Z,22.47
2022-08-12T12:42:56.830Z,22.57
2022-08-12T12:48:12.018Z,22.70
2022-08-12T12:54:09.031Z,22.80
2022-08-12T12:58:51.895Z,23.00
2022-08-12T13:04:02.073Z,23.16
2022-08-12T13:09:13.345Z,23.22
2022-08-12T13:14:29.264Z,23.27
2022-08-12T13:19:45.215Z,23.29
2022-08-12T13:24:56.435Z,23.34
2022-08-12T13:30:06.783Z,23.45
2022-08-12T13:35:19.326Z,23.51
2022-08-12T13:40:29.606Z,23.52
2022-08-12T13:45:37.511Z,23.57
2022-08-12T13:50:45.023Z,23.59
2022-08-12T13:55:59.411Z,23.60
2022-08-12T14:01:09.047Z,23.56
2022-08-12T14:06:16.802Z,23.54
2022-08-12T14:11:25.318Z,23.52
2022-08-12T14:16:46.896Z,23.51
2022-08-12T14:21:59.156Z,23.47
2022-08-12T14:27:09.169Z,23.52
2022-08-12T14:32:18.006Z,23.57
2022-08-12T14:37:56.975Z,23.59
2022-08-12T14:42:52.269Z,23.59
2022-08-12T14:47:59.585Z,23.59
2022-08-12T14:58:38.385Z,23.60
2022-08-12T15:04:01.088Z,23.67
2022-08-12T15:09:12.143Z,23.77
2022-08-12T15:14:19.396Z,23.87
2022-08-12T15:20:28.469Z,23.97
2022-08-12T15:24:54.995Z,24.04
2022-08-12T15:30:02.220Z,24.05
2022-08-12T15:35:14.754Z,24.00
2022-08-12T15:40:30.138Z,24.02
2022-08-12T15:45:42.593Z,24.05
2022-08-12T15:50:55.143Z,24.07
2022-08-12T15:56:06.506Z,24.08
2022-08-12T16:01:21.272Z,24.05
2022-08-12T16:06:50.978Z,23.99
2022-08-12T16:11:55.916Z,23.91
2022-08-12T16:17:02.916Z,23.86
2022-08-12T16:22:11.448Z,23.79
2022-08-12T16:27:19.016Z,23.73
2022-08-12T16:32:31.627Z,23.68
2022-08-12T16:38:25.198Z,23.63
2022-08-12T16:43:25.961Z,23.60
2022-08-12T16:48:36.213Z,23.58
2022-08-12T16:53:45.606Z,23.57
2022-08-12T16:58:54.600Z,23.58
2022-08-12T17:04:09.637Z,23.58
2022-08-12T17:09:18.403Z,23.55
2022-08-12T17:14:26.145Z,23.47
2022-08-12T17:20:28.867Z,23.34
2022-08-12T17:25:14.691Z,23.21
2022-08-12T17:30:22.073Z,23.10
2022-08-12T17:35:36.775Z,23.03
2022-08-12T17:40:47.662Z,22.93
2022-08-12T17:45:56.264Z,22.83
2022-08-12T17:51:15.083Z,22.72
2022-08-12T17:56:31.765Z,22.65
2022-08-12T18:01:43.791Z,22.60
2022-08-12T18:06:51.789Z,22.54
2022-08-12T18:12:24.749Z,22.48
2022-08-12T18:17:39.034Z,22.42
2022-08-12T18:22:48.073Z,22.34
2022-08-12T18:28:15.880Z,22.27
2022-08-12T18:33:26.837Z,22.20
2022-08-12T18:38:34.216Z,22.12
2022-08-12T18:43:58.872Z,22.04
2022-08-12T18:49:18.023Z,21.98
2022-08-12T18:54:29.830Z,21.92
2022-08-12T19:00:01.486Z,21.86
2022-08-12T19:05:10.102Z,21.81
2022-08-12T19:10:23.120Z,21.77
2022-08-12T19:15:31.833Z,21.71
2022-08-12T19:20:48.035Z,21.65
2022-08-12T19:26:00.606Z,21.61
2022-08-12T19:31:56.039Z,21.55
2022-08-12T19:37:08.164Z,21.46
2022-08-12T19:42:16.872Z,21.38
2022-08-12T19:47:24.872Z,21.31
2022-08-12T19:52:35.159Z,21.25
2022-08-12T19:58:02.894Z,21.22
2022-08-12T20:03:38.006Z,21.17
2022-08-12T20:08:39.707Z,21.14
2022-08-12T20:14:01.045Z,21.10
2022-08-12T20:19:10.283Z,21.05
2022-08-12T20:24:19.211Z,21.00
2022-08-12T20:29:36.578Z,20.92
2022-08-12T20:34:44.693Z,20.83
2022-08-12T20:39:58.319Z,20.75
2022-08-12T20:45:08.173Z,20.64
2022-08-12T20:50:15.642Z,20.55
2022-08-12T20:55:42.174Z,20.49
2022-08-12T21:00:50.167Z,20.44
2022-08-12T21:06:15.955Z,20.38
2022-08-12T21:11:24.635Z,20.27
2022-08-12T21:16:38.780Z,20.15
2022-08-12T21:21:50.282Z,20.06
2022-08-12T21:27:03.509Z,20.00
2022-08-12T21:32:39.735Z,19.89
2022-08-12T21:37:42.915Z,19.78
2022-08-12T21:43:00.211Z,19.71
2022-08-12T21:48:11.773Z,19.67
2022-08-12T21:53:21.225Z,19.64
2022-08-12T21:58:29.091Z,19.61
2022-08-12T22:04:10.924Z,19.60
2022-08-12T22:09:23.032Z,19.48
2022-08-12T22:14:31.272Z,19.41
2022-08-12T22:19:40.639Z,19.33
2022-08-12T22:24:52.439Z,19.32
2022-08-12T22:30:23.792Z,19.30
2022-08-12T22:35:56.458Z,19.24
2022-08-12T22:41:02.087Z,19.17
2022-08-12T22:46:30.437Z,19.07
2022-08-12T22:52:00.013Z,18.97
2022-08-12T22:57:12.075Z,18.93
2022-08-12T23:02:28.597Z,18.89
2022-08-12T23:07:52.926Z,18.88
2022-08-12T23:13:24.739Z,18.84
2022-08-12T23:18:34.710Z,18.76
2022-08-12T23:24:09.249Z,18.72
2022-08-12T23:29:29.513Z,18.70
2022-08-12T23:34:37.691Z,18.65
2022-08-12T23:40:13.157Z,18.61
2022-08-12T23:45:19.023Z,18.59
2022-08-12T23:50:33.885Z,18.55
2022-08-12T23:55:42.514Z,18.55
